createdAt,value
2023-05-24T00:00:03.316Z,11.20
2023-05-24T00:01:03.890Z,11.20
2023-05-24T00:02:03.538Z,11.20
2023-05-24T00:03:05.755Z,11.20
2023-05-24T00:04:05.998Z,11.20
2023-05-24T00:05:03.788Z,11.20
2023-05-24T00:06:03.418Z,11.20
2023-05-24T00:07:04.069Z,11.20
2023-05-24T00:08:03.676Z,11.20
2023-05-24T00:09:05.806Z,11.20
2023-05-24T00:10:06.283Z,11.20
2023-05-24T00:11:06.305Z,11.10
2023-05-24T00:12:06.402Z,11.20
2023-05-24T00:13:03.914Z,11.20
2023-05-24T00:14:05.991Z,11.10
2023-05-24T00:15:05.945Z,11.10
2023-05-24T00:16:05.974Z,11.10
2023-05-24T00:17:06.060Z,11.10
2023-05-24T00:18:06.354Z,11.10
2023-05-24T00:19:03.922Z,11.10
2023-05-24T00:20:05.164Z,11.10
2023-05-24T00:21:03.862Z,11.10
2023-05-24T00:22:03.467Z,11.10
2023-05-24T00:23:04.049Z,11.10
2023-05-24T00:24:06.229Z,11.10
2023-05-24T00:25:06.208Z,11.00
2023-05-24T00:26:06.169Z,11.00
2023-05-24T00:27:03.664Z,11.10
2023-05-24T00:28:03.275Z,11.00
2023-05-24T00:29:06.404Z,11.00
2023-05-24T00:30:03.837Z,11.00
2023-05-24T00:31:03.428Z,11.00
2023-05-24T00:32:04.110Z,11.00
2023-05-24T00:33:06.442Z,10.90
2023-05-24T00:34:04.039Z,10.90
2023-05-24T00:35:03.663Z,10.90
2023-05-24T00:36:03.323Z,10.90
2023-05-24T00:37:03.862Z,10.90
2023-05-24T00:38:05.948Z,10.90
2023-05-24T00:39:03.343Z,10.80
2023-05-24T00:40:03.877Z,10.80
2023-05-24T00:41:08.584Z,10.80
2023-05-24T00:42:04.037Z,10.80
2023-05-24T00:43:03.635Z,10.80
2023-05-24T00:44:03.245Z,10.80
2023-05-24T00:45:09.105Z,10.80
2023-05-24T00:47:03.212Z,10.80
2023-05-24T00:48:03.836Z,10.80
2023-05-24T00:49:03.641Z,10.80
2023-05-24T00:50:05.724Z,10.80
2023-05-24T00:51:10.797Z,10.80
2023-05-24T00:52:05.933Z,10.80
2023-05-24T00:53:05.925Z,10.80
2023-05-24T00:54:03.301Z,10.80
2023-05-24T00:55:06.395Z,10.80
2023-05-24T00:56:03.852Z,10.80
2023-05-24T00:57:03.490Z,10.70
2023-05-24T00:58:04.077Z,10.70
2023-05-24T00:59:03.639Z,10.70
2023-05-24T01:00:03.340Z,10.70
2023-05-24T01:01:04.060Z,10.70
2023-05-24T01:02:03.853Z,10.70
2023-05-24T01:03:03.705Z,10.70
2023-05-24T01:04:05.926Z,10.70
2023-05-24T01:05:03.350Z,10.70
2023-05-24T01:06:03.887Z,10.70
2023-05-24T01:07:08.538Z,10.70
2023-05-24T01:08:03.974Z,10.70
2023-05-24T01:09:03.562Z,10.70
2023-05-24T01:10:03.206Z,10.70
2023-05-24T01:11:06.357Z,10.70
2023-05-24T01:12:08.992Z,10.60
2023-05-24T01:13:05.982Z,10.60
2023-05-24T01:14:05.971Z,10.60
2023-05-24T01:15:03.484Z,10.60
2023-05-24T01:16:04.207Z,10.60
2023-05-24T01:17:06.501Z,10.50
2023-05-24T01:18:03.973Z,10.50
2023-05-24T01:19:03.586Z,10.50
2023-05-24T01:20:04.211Z,10.50
2023-05-24T01:22:03.582Z,10.50
2023-05-24T01:23:03.313Z,10.50
2023-05-24T01:24:03.912Z,10.50
2023-05-24T01:25:03.511Z,10.50
2023-05-24T01:26:04.100Z,10.50
2023-05-24T01:27:03.683Z,10.40
2023-05-24T01:28:05.801Z,10.40
2023-05-24T01:29:05.773Z,10.30
2023-05-24T01:30:05.755Z,10.30
2023-05-24T01:31:03.186Z,10.30
2023-05-24T01:32:06.294Z,10.30
2023-05-24T01:33:03.790Z,10.30
2023-05-24T01:34:03.456Z,10.30
2023-05-24T01:35:09.116Z,10.30
2023-05-24T01:36:06.147Z,10.30
2023-05-24T01:37:03.690Z,10.20
2023-05-24T01:38:03.302Z,10.20
2023-05-24T01:39:03.882Z,10.20
2023-05-24T01:40:06.019Z,10.20
2023-05-24T01:41:03.462Z,10.20
2023-05-24T01:42:09.171Z,10.20
2023-05-24T01:43:03.625Z,10.20
2023-05-24T01:44:03.119Z,10.10
2023-05-24T01:45:03.637Z,10.10
2023-05-24T01:46:03.214Z,10.10
2023-05-24T01:47:06.414Z,10.10
2023-05-24T01:48:06.625Z,10.00
2023-05-24T01:49:05.867Z,10.00
2023-05-24T01:50:03.269Z,10.00
2023-05-24T01:51:03.877Z,10.00
2023-05-24T01:52:08.693Z,9.90
2023-05-24T01:53:03.199Z,9.90
2023-05-24T01:54:03.865Z,9.90
2023-05-24T01:55:11.056Z,9.80
2023-05-24T01:56:03.505Z,9.80
2023-05-24T01:57:04.125Z,9.80
2023-05-24T01:58:03.731Z,9.80
2023-05-24T01:59:03.244Z,9.80
2023-05-24T02:00:06.317Z,9.80
2023-05-24T02:01:03.746Z,9.80
2023-05-24T02:02:05.962Z,9.70
2023-05-24T02:03:06.299Z,9.70
2023-05-24T02:04:08.298Z,9.70
2023-05-24T02:05:03.759Z,9.70
2023-05-24T02:06:03.360Z,9.70
2023-05-24T02:07:03.985Z,9.70
2023-05-24T02:08:08.573Z,9.70
2023-05-24T02:09:06.588Z,9.70
2023-05-24T02:10:04.033Z,9.70
2023-05-24T02:11:06.293Z,9.70
2023-05-24T02:12:03.770Z,9.70
2023-05-24T02:13:05.879Z,9.60
2023-05-24T02:14:05.928Z,9.60
2023-05-24T02:15:03.471Z,9.60
2023-05-24T02:16:04.157Z,9.60
2023-05-24T02:17:03.894Z,9.60
2023-05-24T02:19:08.583Z,9.50
2023-05-24T02:20:04.072Z,9.50
2023-05-24T02:21:05.987Z,9.50
2023-05-24T02:22:05.959Z,9.50
2023-05-24T02:23:05.998Z,9.60
2023-05-24T02:24:03.488Z,9.50
2023-05-24T02:25:04.018Z,9.60
2023-05-24T02:26:03.678Z,9.50
2023-05-24T02:27:05.783Z,9.50
2023-05-24T02:28:03.315Z,9.50
2023-05-24T02:29:06.364Z,9.60
2023-05-24T02:30:06.440Z,9.50
2023-05-24T02:31:11.486Z,9.50
2023-05-24T02:32:03.965Z,9.50
2023-05-24T02:33:04.027Z,9.50
2023-05-24T02:34:06.165Z,9.50
2023-05-24T02:35:06.218Z,9.50
2023-05-24T02:36:03.667Z,9.50
2023-05-24T02:37:03.180Z,9.50
2023-05-24T02:38:06.257Z,9.50
2023-05-24T02:39:03.736Z,9.50
2023-05-24T02:41:03.833Z,9.50
2023-05-24T02:42:03.374Z,9.50
2023-05-24T02:43:04.012Z,9.50
2023-05-24T02:44:06.170Z,9.50
2023-05-24T02:45:03.547Z,9.50
2023-05-24T02:46:06.606Z,9.50
2023-05-24T02:47:06.594Z,9.50
2023-05-24T02:48:04.023Z,9.40
2023-05-24T02:49:03.611Z,9.40
2023-05-24T02:50:03.172Z,9.40
2023-05-24T02:51:03.803Z,9.40
2023-05-24T02:52:03.402Z,9.40
2023-05-24T02:53:03.891Z,9.40
2023-05-24T02:54:05.948Z,9.40
2023-05-24T02:55:03.393Z,9.40
2023-05-24T02:56:06.475Z,9.40
2023-05-24T02:57:06.456Z,9.40
2023-05-24T02:58:06.513Z,9.40
2023-05-24T02:59:03.918Z,9.40
2023-05-24T03:00:06.002Z,9.30
2023-05-24T03:01:03.556Z,9.40
2023-05-24T03:02:05.823Z,9.30
2023-05-24T03:03:06.091Z,9.30
2023-05-24T03:04:06.180Z,9.30
2023-05-24T03:05:03.752Z,9.30
2023-05-24T03:06:06.080Z,9.30
2023-05-24T03:07:06.022Z,9.20
2023-05-24T03:08:06.037Z,9.30
2023-05-24T03:09:06.027Z,9.20
2023-05-24T03:10:03.475Z,9.20
2023-05-24T03:11:04.034Z,9.20
2023-05-24T03:12:03.598Z,9.20
2023-05-24T03:13:08.265Z,9.20
2023-05-24T03:14:08.833Z,9.20
2023-05-24T03:15:03.311Z,9.10
2023-05-24T03:16:03.513Z,9.20
2023-05-24T03:18:03.924Z,9.20
2023-05-24T03:20:06.738Z,9.20
2023-05-24T03:22:06.343Z,9.10
2023-05-24T03:23:03.787Z,9.10
2023-05-24T03:24:03.391Z,9.10
2023-05-24T03:25:03.956Z,9.10
2023-05-24T03:26:03.675Z,9.00
2023-05-24T03:27:08.340Z,9.00
2023-05-24T03:28:03.752Z,9.00
2023-05-24T03:29:05.836Z,9.00
2023-05-24T03:30:05.935Z,9.00
2023-05-24T03:31:03.364Z,9.00
2023-05-24T03:32:03.921Z,9.00
2023-05-24T03:33:08.825Z,9.00
2023-05-24T03:34:03.463Z,9.10
2023-05-24T03:35:03.973Z,9.00
2023-05-24T03:36:06.161Z,9.00
2023-05-24T03:37:06.218Z,9.00
2023-05-24T03:38:03.614Z,9.00
2023-05-24T03:39:04.126Z,9.00
2023-05-24T03:40:03.833Z,9.00
2023-05-24T03:41:06.070Z,9.00
2023-05-24T03:42:03.524Z,8.90
2023-05-24T03:43:04.659Z,9.00
2023-05-24T03:45:06.505Z,8.90
2023-05-24T03:46:09.107Z,8.90
2023-05-24T03:48:03.421Z,8.90
2023-05-24T03:49:05.665Z,8.90
2023-05-24T03:50:04.174Z,8.90
2023-05-24T03:51:03.791Z,8.90
2023-05-24T03:52:03.374Z,8.90
2023-05-24T03:53:06.670Z,8.90
2023-05-24T03:54:09.102Z,8.90
2023-05-24T03:56:04.086Z,9.10
2023-05-24T03:57:06.208Z,8.90
2023-05-24T03:58:06.949Z,8.90
2023-05-24T03:59:05.994Z,8.90
2023-05-24T04:00:03.427Z,8.90
2023-05-24T04:01:04.023Z,8.90
2023-05-24T04:02:06.231Z,8.90
2023-05-24T04:03:03.766Z,8.90
2023-05-24T04:04:03.595Z,8.90
2023-05-24T04:06:03.835Z,8.90
2023-05-24T04:07:03.542Z,8.90
2023-05-24T04:08:04.060Z,8.90
2023-05-24T04:09:06.265Z,8.90
2023-05-24T04:10:06.210Z,8.90
2023-05-24T04:11:03.598Z,8.90
2023-05-24T04:12:06.711Z,9.00
2023-05-24T04:13:05.763Z,9.00
2023-05-24T04:14:03.302Z,9.00
2023-05-24T04:15:03.840Z,9.00
2023-05-24T04:16:06.000Z,9.00
2023-05-24T04:17:06.136Z,9.00
2023-05-24T04:18:03.882Z,9.00
2023-05-24T04:19:03.587Z,9.00
2023-05-24T04:20:05.962Z,9.00
2023-05-24T04:21:03.474Z,9.00
2023-05-24T04:22:04.016Z,9.10
2023-05-24T04:23:06.074Z,9.10
2023-05-24T04:24:03.483Z,9.10
2023-05-24T04:25:04.387Z,9.10
2023-05-24T04:26:05.758Z,9.10
2023-05-24T04:27:03.306Z,9.10
2023-05-24T04:28:06.426Z,9.10
2023-05-24T04:29:06.352Z,9.10
2023-05-24T04:30:03.920Z,9.10
2023-05-24T04:31:03.589Z,9.20
2023-05-24T04:32:03.323Z,9.20
2023-05-24T04:33:03.962Z,9.20
2023-05-24T04:34:06.241Z,9.20
2023-05-24T04:35:06.295Z,9.30
2023-05-24T04:36:03.786Z,9.20
2023-05-24T04:37:03.327Z,9.30
2023-05-24T04:38:06.514Z,9.30
2023-05-24T04:39:06.499Z,9.30
2023-05-24T04:40:04.017Z,9.30
2023-05-24T04:41:03.543Z,9.30
2023-05-24T04:42:06.694Z,9.40
2023-05-24T04:44:06.300Z,9.50
2023-05-24T04:45:06.277Z,9.50
2023-05-24T04:46:03.856Z,9.40
2023-05-24T04:47:03.545Z,9.40
2023-05-24T04:48:03.333Z,9.50
2023-05-24T04:49:04.054Z,9.50
2023-05-24T04:51:03.293Z,9.50
2023-05-24T04:52:03.868Z,9.50
2023-05-24T04:53:03.444Z,9.60
2023-05-24T04:54:03.943Z,9.50
2023-05-24T04:55:06.076Z,9.60
2023-05-24T04:56:06.127Z,9.60
2023-05-24T04:58:03.991Z,9.70
2023-05-24T04:59:06.122Z,9.60
2023-05-24T05:00:06.145Z,9.70
2023-05-24T05:01:06.164Z,9.60
2023-05-24T05:02:03.974Z,9.60
2023-05-24T05:03:03.619Z,9.70
2023-05-24T05:04:03.531Z,9.60
2023-05-24T05:05:03.298Z,9.70
2023-05-24T05:06:03.896Z,9.70
2023-05-24T05:07:03.476Z,9.70
2023-05-24T05:08:06.674Z,9.80
2023-05-24T05:09:06.623Z,9.80
2023-05-24T05:10:04.098Z,9.80
2023-05-24T05:11:03.731Z,9.80
2023-05-24T05:12:03.397Z,9.80
2023-05-24T05:13:06.623Z,9.80
2023-05-24T05:14:04.046Z,9.80
2023-05-24T05:15:06.157Z,9.80
2023-05-24T05:16:06.132Z,9.90
2023-05-24T05:17:03.682Z,9.90
2023-05-24T05:19:03.949Z,10.00
2023-05-24T05:20:03.550Z,9.90
2023-05-24T05:21:03.230Z,10.00
2023-05-24T05:22:03.903Z,10.00
2023-05-24T05:23:06.217Z,10.00
2023-05-24T05:24:08.758Z,10.10
2023-05-24T05:26:06.391Z,10.10
2023-05-24T05:27:06.508Z,10.10
2023-05-24T05:28:03.986Z,10.10
2023-05-24T05:29:03.591Z,10.10
2023-05-24T05:30:03.159Z,10.10
2023-05-24T05:31:06.275Z,10.00
2023-05-24T05:32:06.280Z,10.10
2023-05-24T05:33:03.800Z,10.10
2023-05-24T05:34:03.384Z,10.10
2023-05-24T05:35:09.026Z,10.10
2023-05-24T05:37:06.583Z,10.10
2023-05-24T05:38:04.106Z,10.10
2023-05-24T05:39:06.462Z,10.20
2023-05-24T05:40:03.841Z,10.20
2023-05-24T05:41:05.981Z,10.30
2023-05-24T05:42:03.438Z,10.30
2023-05-24T05:43:04.076Z,10.40
2023-05-24T05:45:06.669Z,10.70
2023-05-24T05:46:04.252Z,10.70
2023-05-24T05:47:06.427Z,10.80
2023-05-24T05:48:09.075Z,10.90
2023-05-24T05:50:03.185Z,10.90
2023-05-24T05:51:06.366Z,11.20
2023-05-24T05:52:03.755Z,11.10
2023-05-24T05:53:05.847Z,11.30
2023-05-24T05:54:03.259Z,11.30
2023-05-24T05:55:03.832Z,11.40
2023-05-24T05:57:04.007Z,11.40
2023-05-24T05:58:06.199Z,11.50
2023-05-24T05:59:06.157Z,11.40
2023-05-24T06:00:03.965Z,11.40
2023-05-24T06:01:03.660Z,11.30
2023-05-24T06:02:03.192Z,11.30
2023-05-24T06:03:03.927Z,11.30
2023-05-24T06:05:03.555Z,11.20
2023-05-24T06:06:03.262Z,11.20
2023-05-24T06:07:03.962Z,11.20
2023-05-24T06:08:11.184Z,11.10
2023-05-24T06:09:06.214Z,11.10
2023-05-24T06:10:03.738Z,11.10
2023-05-24T06:11:03.243Z,11.10
2023-05-24T06:12:06.451Z,11.10
2023-05-24T06:13:03.980Z,11.10
2023-05-24T06:14:06.104Z,11.00
2023-05-24T06:15:03.532Z,11.00
2023-05-24T06:16:04.191Z,10.90
2023-05-24T06:18:06.033Z,10.90
2023-05-24T06:19:06.198Z,10.80
2023-05-24T06:20:03.882Z,10.90
2023-05-24T06:21:06.144Z,10.90
2023-05-24T06:22:03.536Z,10.80
2023-05-24T06:23:04.037Z,10.80
2023-05-24T06:24:06.211Z,10.70
2023-05-24T06:25:03.567Z,10.80
2023-05-24T06:26:04.121Z,10.70
2023-05-24T06:27:08.716Z,10.70
2023-05-24T06:28:03.303Z,10.80
2023-05-24T06:29:03.841Z,10.80
2023-05-24T06:30:03.471Z,10.70
2023-05-24T06:31:05.733Z,10.80
2023-05-24T06:32:03.338Z,10.80
2023-05-24T06:33:03.897Z,10.80
2023-05-24T06:34:04.748Z,10.80
2023-05-24T06:35:06.199Z,10.70
2023-05-24T06:36:03.691Z,10.80
2023-05-24T06:37:03.277Z,10.80
2023-05-24T06:38:06.395Z,10.80
2023-05-24T06:39:03.933Z,10.80
2023-05-24T06:40:03.728Z,10.80
2023-05-24T06:41:06.356Z,10.80
2023-05-24T06:42:03.840Z,10.70
2023-05-24T06:43:03.461Z,10.70
2023-05-24T06:44:04.098Z,10.70
2023-05-24T06:45:03.740Z,10.70
2023-05-24T06:46:05.881Z,10.70
2023-05-24T06:47:03.320Z,10.70
2023-05-24T06:48:06.557Z,10.70
2023-05-24T06:50:04.009Z,10.70
2023-05-24T06:51:06.202Z,10.80
2023-05-24T06:52:03.776Z,10.70
2023-05-24T06:53:03.436Z,10.80
2023-05-24T06:54:06.561Z,10.90
2023-05-24T06:55:04.033Z,10.90
2023-05-24T06:56:06.253Z,11.20
2023-05-24T06:57:06.201Z,11.30
2023-05-24T06:58:06.149Z,11.40
2023-05-24T06:59:03.613Z,11.40
2023-05-24T07:00:03.244Z,11.50
2023-05-24T07:01:06.425Z,11.60
2023-05-24T07:02:08.876Z,11.60
2023-05-24T07:03:08.402Z,11.70
2023-05-24T07:04:06.450Z,11.80
2023-05-24T07:05:06.479Z,11.80
2023-05-24T07:06:04.232Z,11.80
2023-05-24T07:07:03.920Z,11.90
2023-05-24T07:08:06.124Z,12.00
2023-05-24T07:09:06.036Z,12.00
2023-05-24T07:10:06.052Z,12.00
2023-05-24T07:11:06.054Z,12.10
2023-05-24T07:12:07.722Z,12.10
2023-05-24T07:13:03.664Z,12.00
2023-05-24T07:14:03.233Z,12.10
2023-05-24T07:15:03.772Z,12.10
2023-05-24T07:16:05.835Z,12.30
2023-05-24T07:17:05.998Z,12.30
2023-05-24T07:18:03.795Z,12.30
2023-05-24T07:19:04.940Z,12.30
2023-05-24T07:20:03.765Z,12.40
2023-05-24T07:21:09.118Z,12.50
2023-05-24T07:22:08.747Z,12.50
2023-05-24T07:23:03.284Z,12.50
2023-05-24T07:24:03.986Z,12.60
2023-05-24T07:25:06.188Z,12.60
2023-05-24T07:26:06.171Z,12.60
2023-05-24T07:27:03.636Z,12.70
2023-05-24T07:28:03.194Z,12.70
2023-05-24T07:29:04.115Z,12.80
2023-05-24T07:30:03.669Z,12.90
2023-05-24T07:31:03.244Z,12.90
2023-05-24T07:32:03.832Z,13.00
2023-05-24T07:33:06.233Z,13.00
2023-05-24T07:34:06.265Z,13.00
2023-05-24T07:35:03.860Z,13.00
2023-05-24T07:36:03.414Z,13.00
2023-05-24T07:37:03.995Z,13.10
2023-05-24T07:38:03.611Z,13.10
2023-05-24T07:39:03.305Z,13.10
2023-05-24T07:40:03.942Z,13.10
2023-05-24T07:41:08.585Z,13.20
2023-05-24T07:42:04.018Z,13.20
2023-05-24T07:43:04.294Z,13.20
2023-05-24T07:44:04.007Z,13.30
2023-05-24T07:45:03.592Z,13.30
2023-05-24T07:46:03.224Z,13.40
2023-05-24T07:47:03.912Z,13.40
2023-05-24T07:49:04.219Z,13.30
2023-05-24T07:50:06.354Z,13.40
2023-05-24T07:51:03.774Z,13.40
2023-05-24T07:52:05.852Z,13.40
2023-05-24T07:53:03.319Z,13.30
2023-05-24T07:54:06.613Z,13.30
2023-05-24T07:55:04.032Z,13.30
2023-05-24T07:56:03.685Z,13.30
2023-05-24T07:57:09.382Z,13.40
2023-05-24T07:58:03.951Z,13.40
2023-05-24T07:59:06.071Z,13.50
2023-05-24T08:00:06.101Z,13.50
2023-05-24T08:01:03.663Z,13.50
2023-05-24T08:02:03.352Z,13.60
2023-05-24T08:03:03.954Z,13.60
2023-05-24T08:05:03.672Z,13.70
2023-05-24T08:06:08.279Z,13.70
2023-05-24T08:07:03.873Z,13.60
2023-05-24T08:08:03.422Z,13.60
2023-05-24T08:09:03.993Z,13.60
2023-05-24T08:11:03.910Z,13.50
2023-05-24T08:12:05.941Z,13.50
2023-05-24T08:13:06.126Z,13.50
2023-05-24T08:14:03.736Z,13.50
2023-05-24T08:15:03.346Z,13.60
2023-05-24T08:16:05.815Z,13.70
2023-05-24T08:17:03.435Z,13.70
2023-05-24T08:18:03.995Z,13.80
2023-05-24T08:19:03.712Z,13.90
2023-05-24T08:20:03.519Z,14.00
2023-05-24T08:21:03.233Z,14.10
2023-05-24T08:22:06.432Z,14.30
2023-05-24T08:23:06.470Z,14.30
2023-05-24T08:24:05.479Z,14.30
2023-05-24T08:26:03.392Z,14.30
2023-05-24T08:27:08.992Z,14.40
2023-05-24T08:28:03.500Z,14.40
2023-05-24T08:29:04.102Z,14.40
2023-05-24T08:30:11.399Z,14.50
2023-05-24T08:31:03.876Z,14.50
2023-05-24T08:32:03.846Z,14.50
2023-05-24T08:34:03.854Z,14.70
2023-05-24T08:35:11.014Z,14.60
2023-05-24T08:36:06.671Z,15.00
2023-05-24T08:37:05.790Z,15.00
2023-05-24T08:38:03.190Z,15.00
2023-05-24T08:39:06.294Z,15.10
2023-05-24T08:40:03.679Z,15.20
2023-05-24T08:41:03.260Z,15.20
2023-05-24T08:42:09.600Z,15.30
2023-05-24T08:43:04.114Z,15.30
2023-05-24T08:44:03.695Z,15.20
2023-05-24T08:45:03.260Z,15.20
2023-05-24T08:46:03.987Z,15.20
2023-05-24T08:47:06.251Z,15.20
2023-05-24T08:48:03.949Z,15.20
2023-05-24T08:49:03.687Z,15.10
2023-05-24T08:50:06.019Z,15.10
2023-05-24T08:51:03.501Z,15.10
2023-05-24T08:52:04.074Z,15.20
2023-05-24T08:53:03.744Z,15.20
2023-05-24T08:54:03.355Z,15.30
2023-05-24T08:55:06.454Z,15.60
2023-05-24T08:56:03.965Z,15.60
2023-05-24T08:57:08.846Z,15.80
2023-05-24T08:58:05.828Z,15.90
2023-05-24T08:59:05.752Z,16.00
2023-05-24T09:00:03.222Z,16.00
2023-05-24T09:01:03.917Z,16.00
2023-05-24T09:02:03.860Z,16.10
2023-05-24T09:03:06.240Z,16.20
2023-05-24T09:04:06.470Z,16.30
2023-05-24T09:06:06.401Z,16.40
2023-05-24T09:07:06.396Z,16.40
2023-05-24T09:08:03.866Z,16.40
2023-05-24T09:09:03.434Z,16.40
2023-05-24T09:10:06.643Z,16.30
2023-05-24T09:12:06.304Z,16.20
2023-05-24T09:13:03.923Z,16.20
2023-05-24T09:14:03.488Z,16.20
2023-05-24T09:15:04.126Z,16.20
2023-05-24T09:16:03.790Z,16.20
2023-05-24T09:17:03.412Z,16.10
2023-05-24T09:18:04.069Z,16.10
2023-05-24T09:19:03.661Z,16.00
2023-05-24T09:20:03.252Z,16.00
2023-05-24T09:21:03.912Z,15.90
2023-05-24T09:23:03.225Z,15.90
2023-05-24T09:24:03.765Z,16.00
2023-05-24T09:25:03.311Z,16.10
2023-05-24T09:26:08.972Z,16.10
2023-05-24T09:27:05.949Z,16.10
2023-05-24T09:28:03.372Z,16.10
2023-05-24T09:29:08.949Z,16.20
2023-05-24T09:30:03.483Z,16.20
2023-05-24T09:31:06.528Z,16.30
2023-05-24T09:33:03.435Z,16.40
2023-05-24T09:34:04.201Z,16.40
2023-05-24T09:35:03.815Z,16.40
2023-05-24T09:36:03.472Z,16.50
2023-05-24T09:37:04.165Z,16.40
2023-05-24T09:38:03.654Z,16.40
2023-05-24T09:39:03.218Z,16.40
2023-05-24T09:40:06.424Z,16.40
2023-05-24T09:41:06.576Z,16.40
2023-05-24T09:42:06.606Z,16.40
2023-05-24T09:43:04.096Z,16.30
2023-05-24T09:44:03.666Z,16.40
2023-05-24T09:45:08.374Z,16.20
2023-05-24T09:46:06.428Z,16.20
2023-05-24T09:47:06.439Z,16.10
2023-05-24T09:49:06.229Z,16.10
2023-05-24T09:50:03.762Z,16.00
2023-05-24T09:51:06.136Z,16.00
2023-05-24T09:52:03.906Z,16.00
2023-05-24T09:54:03.923Z,15.90
2023-05-24T09:56:03.780Z,15.90
2023-05-24T09:57:04.866Z,15.90
2023-05-24T09:58:06.395Z,15.90
2023-05-24T09:59:06.396Z,16.00
2023-05-24T10:00:06.379Z,15.90
2023-05-24T10:01:06.468Z,15.90
2023-05-24T10:03:06.429Z,15.90
2023-05-24T10:05:05.980Z,15.90
2023-05-24T10:06:03.487Z,15.80
2023-05-24T10:07:06.650Z,15.90
2023-05-24T10:08:04.095Z,15.80
2023-05-24T10:09:06.285Z,15.90
2023-05-24T10:10:06.041Z,15.90
2023-05-24T10:11:05.820Z,15.90
2023-05-24T10:12:03.343Z,15.90
2023-05-24T10:13:04.070Z,16.00
2023-05-24T10:14:06.437Z,16.10
2023-05-24T10:15:09.027Z,16.10
2023-05-24T10:17:03.578Z,16.10
2023-05-24T10:18:05.976Z,16.00
2023-05-24T10:19:08.798Z,16.00
2023-05-24T10:20:03.388Z,16.00
2023-05-24T10:21:06.725Z,16.10
2023-05-24T10:23:03.994Z,16.00
2023-05-24T10:24:03.659Z,15.90
2023-05-24T10:25:06.220Z,15.80
2023-05-24T10:26:06.235Z,15.70
2023-05-24T10:27:06.414Z,15.70
2023-05-24T10:28:03.952Z,15.70
2023-05-24T10:29:03.548Z,15.70
2023-05-24T10:30:04.151Z,15.70
2023-05-24T10:31:10.935Z,15.70
2023-05-24T10:32:06.114Z,15.80
2023-05-24T10:33:03.289Z,15.80
2023-05-24T10:34:07.513Z,15.80
2023-05-24T10:35:03.409Z,15.80
2023-05-24T10:36:04.780Z,15.80
2023-05-24T10:37:06.474Z,15.90
2023-05-24T10:38:04.067Z,16.00
2023-05-24T10:39:03.730Z,16.00
2023-05-24T10:40:05.806Z,16.10
2023-05-24T10:41:03.458Z,16.10
2023-05-24T10:42:07.274Z,16.20
2023-05-24T10:43:05.853Z,16.30
2023-05-24T10:45:04.142Z,16.30
2023-05-24T10:46:06.418Z,16.30
2023-05-24T10:47:04.117Z,16.30
2023-05-24T10:49:03.754Z,16.30
2023-05-24T10:50:05.966Z,16.20
2023-05-24T10:51:05.986Z,16.20
2023-05-24T10:52:06.003Z,16.30
2023-05-24T10:53:03.438Z,16.30
2023-05-24T10:54:07.538Z,16.40
2023-05-24T10:55:04.605Z,16.40
2023-05-24T10:56:06.380Z,16.50
2023-05-24T10:57:03.819Z,16.50
2023-05-24T10:58:03.530Z,16.60
2023-05-24T10:59:05.829Z,16.70
2023-05-24T11:00:03.968Z,16.70
2023-05-24T11:01:03.694Z,16.70
2023-05-24T11:02:03.589Z,16.80
2023-05-24T11:03:03.243Z,16.00
2023-05-24T11:04:03.969Z,16.90
2023-05-24T11:05:06.126Z,16.90
2023-05-24T11:06:03.772Z,16.90
2023-05-24T11:07:03.303Z,16.90
2023-05-24T11:08:03.915Z,17.00
2023-05-24T11:09:06.101Z,17.10
2023-05-24T11:10:06.107Z,17.10
2023-05-24T11:11:11.758Z,17.10
2023-05-24T11:12:08.583Z,17.30
2023-05-24T11:13:06.570Z,17.40
2023-05-24T11:14:04.041Z,17.30
2023-05-24T11:15:06.187Z,17.40
2023-05-24T11:16:06.042Z,17.50
2023-05-24T11:17:06.121Z,17.40
2023-05-24T11:18:03.638Z,17.40
2023-05-24T11:19:03.321Z,17.50
2023-05-24T11:20:03.677Z,17.40
2023-05-24T11:21:05.833Z,17.30
2023-05-24T11:23:03.676Z,17.20
2023-05-24T11:24:05.868Z,17.00
2023-05-24T11:25:05.779Z,17.00
2023-05-24T11:26:05.852Z,17.00
2023-05-24T11:27:03.334Z,17.00
2023-05-24T11:28:03.928Z,17.00
2023-05-24T11:29:05.148Z,17.10
2023-05-24T11:30:04.023Z,17.10
2023-05-24T11:31:03.623Z,17.10
2023-05-24T11:32:06.153Z,17.20
2023-05-24T11:33:03.746Z,17.20
2023-05-24T11:34:03.533Z,17.20
2023-05-24T11:35:04.141Z,17.20
2023-05-24T11:36:06.305Z,17.30
2023-05-24T11:37:03.797Z,17.30
2023-05-24T11:38:05.908Z,17.30
2023-05-24T11:39:03.353Z,17.30
2023-05-24T11:40:06.495Z,17.10
2023-05-24T11:41:06.623Z,17.00
2023-05-24T11:42:04.092Z,17.00
2023-05-24T11:43:03.632Z,16.90
2023-05-24T11:44:08.302Z,16.70
2023-05-24T11:45:06.321Z,16.60
2023-05-24T11:46:03.713Z,16.50
2023-05-24T11:47:03.504Z,16.50
2023-05-24T11:48:10.908Z,16.40
2023-05-24T11:49:06.174Z,16.40
2023-05-24T11:50:06.132Z,16.30
2023-05-24T11:51:11.235Z,16.20
2023-05-24T11:52:08.878Z,16.10
2023-05-24T11:53:08.284Z,16.10
2023-05-24T11:54:03.825Z,16.10
2023-05-24T11:55:06.015Z,16.10
2023-05-24T11:56:05.955Z,16.10
2023-05-24T11:57:03.422Z,16.10
2023-05-24T11:58:06.639Z,16.30
2023-05-24T11:59:04.061Z,16.30
2023-05-24T12:00:05.789Z,16.50
2023-05-24T12:01:03.257Z,16.50
2023-05-24T12:02:03.980Z,16.50
2023-05-24T12:03:08.520Z,16.50
2023-05-24T12:04:03.412Z,16.50
2023-05-24T12:05:03.972Z,16.50
2023-05-24T12:06:05.906Z,16.60
2023-05-24T12:07:03.419Z,16.60
2023-05-24T12:08:04.078Z,16.60
2023-05-24T12:09:03.971Z,16.70
2023-05-24T12:10:03.581Z,16.70
2023-05-24T12:11:03.208Z,16.80
2023-05-24T12:12:08.820Z,16.90
2023-05-24T12:13:08.611Z,17.00
2023-05-24T12:14:06.664Z,17.00
2023-05-24T12:15:04.102Z,17.00
2023-05-24T12:16:03.696Z,17.20
2023-05-24T12:17:05.934Z,17.30
2023-05-24T12:18:03.467Z,17.30
2023-05-24T12:19:11.820Z,17.40
2023-05-24T12:20:06.592Z,17.30
2023-05-24T12:21:05.704Z,17.30
2023-05-24T12:22:04.127Z,17.30
2023-05-24T12:23:03.717Z,17.30
2023-05-24T12:24:03.225Z,17.30
2023-05-24T12:25:03.792Z,17.20
2023-05-24T12:26:05.840Z,17.10
2023-05-24T12:27:03.459Z,17.10
2023-05-24T12:28:06.653Z,17.00
2023-05-24T12:29:04.153Z,17.00
2023-05-24T12:30:06.341Z,16.90
2023-05-24T12:31:03.862Z,16.90
2023-05-24T12:32:08.726Z,16.90
2023-05-24T12:33:03.408Z,16.90
2023-05-24T12:34:06.555Z,16.90
2023-05-24T12:35:06.600Z,16.90
2023-05-24T12:36:04.042Z,16.90
2023-05-24T12:37:06.161Z,17.00
2023-05-24T12:38:03.628Z,17.00
2023-05-24T12:39:03.303Z,17.10
2023-05-24T12:40:03.830Z,17.10
2023-05-24T12:42:03.634Z,17.30
2023-05-24T12:43:03.346Z,17.40
2023-05-24T12:44:04.009Z,17.50
2023-05-24T12:45:03.598Z,17.60
2023-05-24T12:46:06.641Z,17.70
2023-05-24T12:48:03.714Z,17.70
2023-05-24T12:50:04.043Z,17.60
2023-05-24T12:51:03.600Z,17.60
2023-05-24T12:52:03.274Z,17.50
2023-05-24T12:53:03.909Z,17.50
2023-05-24T12:55:03.863Z,17.50
2023-05-24T12:57:06.666Z,17.40
2023-05-24T12:58:04.116Z,17.40
2023-05-24T12:59:03.634Z,17.40
2023-05-24T13:00:03.284Z,17.40
2023-05-24T13:01:06.461Z,17.40
2023-05-24T13:02:03.966Z,17.40
2023-05-24T13:04:06.645Z,17.50
2023-05-24T13:05:06.578Z,17.10
2023-05-24T13:06:04.131Z,17.70
2023-05-24T13:07:03.800Z,17.90
2023-05-24T13:08:03.658Z,17.80
2023-05-24T13:09:03.674Z,17.50
2023-05-24T13:10:06.508Z,17.50
2023-05-24T13:11:06.512Z,17.40
2023-05-24T13:12:03.900Z,17.60
2023-05-24T13:13:03.496Z,17.40
2023-05-24T13:14:09.278Z,17.60
2023-05-24T13:15:06.628Z,17.40
2023-05-24T13:16:04.072Z,17.40
2023-05-24T13:17:03.728Z,17.50
2023-05-24T13:19:04.080Z,17.50
2023-05-24T13:20:03.726Z,17.60
2023-05-24T13:21:03.296Z,17.60
2023-05-24T13:22:03.820Z,17.70
2023-05-24T13:23:03.648Z,17.80
2023-05-24T13:24:03.319Z,17.80
2023-05-24T13:25:03.970Z,17.80
2023-05-24T13:26:06.154Z,17.80
2023-05-24T13:27:03.591Z,17.80
2023-05-24T13:28:05.695Z,17.80
2023-05-24T13:30:04.211Z,17.90
2023-05-24T13:31:08.847Z,17.80
2023-05-24T13:32:03.442Z,17.90
2023-05-24T13:33:04.056Z,17.80
2023-05-24T13:34:06.318Z,17.60
2023-05-24T13:35:05.269Z,17.60
2023-05-24T13:36:06.696Z,17.40
2023-05-24T13:37:05.785Z,17.30
2023-05-24T13:38:10.774Z,17.30
2023-05-24T13:39:14.717Z,17.20
2023-05-24T13:40:06.538Z,17.10
2023-05-24T13:41:06.634Z,17.10
2023-05-24T13:42:06.585Z,17.00
2023-05-24T13:43:04.172Z,17.10
2023-05-24T13:44:06.210Z,17.10
2023-05-24T13:45:03.661Z,17.00
2023-05-24T13:46:03.239Z,17.00
2023-05-24T13:47:03.857Z,17.10
2023-05-24T13:48:04.087Z,17.00